Time;durP1;ratioP1;P1;durP2;ratioP2;P2;SDS_P1;SDS_P2;PMS_P1;PMS_P2;Temp;Humidity;BMP_temperature;BMP_pressure;BME280_temperature;BME280_humidity;BME280_pressure;Samples;Min_cycle;Max_cycle;Signal;HPM_P1;HPM_P2
2023/05/28 00:01:32;;;;;;;14.43;5.23;;;13.80;99.90;;;;;;5135138;27;20161;-51
2023/05/28 00:03:58;;;;;;;13.00;4.90;;;13.80;99.90;;;;;;5134534;27;20212;-50
2023/05/28 00:06:24;;;;;;;9.37;4.90;;;13.70;99.90;;;;;;5134520;27;20206;-51
2023/05/28 00:08:49;;;;;;;8.77;4.40;;;13.60;99.90;;;;;;5133620;27;20201;-50
2023/05/28 00:11:15;;;;;;;9.83;4.77;;;13.60;99.90;;;;;;5116146;28;20268;-50
2023/05/28 00:13:40;;;;;;;8.00;4.53;;;13.50;99.90;;;;;;5134582;27;20681;-49
2023/05/28 00:16:06;;;;;;;8.13;4.53;;;13.40;99.90;;;;;;5134920;28;20205;-50
2023/05/28 00:18:32;;;;;;;12.77;3.93;;;13.30;99.90;;;;;;5134646;28;20169;-51
2023/05/28 00:20:58;;;;;;;8.93;4.40;;;13.20;99.90;;;;;;5134687;28;20640;-50
2023/05/28 00:23:24;;;;;;;10.10;4.43;;;13.20;99.90;;;;;;5134944;28;20250;-49
2023/05/28 00:25:49;;;;;;;14.73;5.20;;;13.10;99.90;;;;;;5115930;28;20184;-50
2023/05/28 00:28:15;;;;;;;9.03;4.30;;;13.00;99.90;;;;;;5134347;28;20226;-50
2023/05/28 00:30:41;;;;;;;10.53;4.50;;;12.90;99.90;;;;;;5134202;28;20256;-50
2023/05/28 00:33:07;;;;;;;10.70;4.20;;;12.90;99.90;;;;;;5133909;28;20225;-51
2023/05/28 00:35:32;;;;;;;9.00;4.23;;;12.80;99.90;;;;;;5134039;28;20254;-51
2023/05/28 00:37:58;;;;;;;7.93;3.77;;;12.70;99.90;;;;;;5115820;28;20185;-50
2023/05/28 00:40:23;;;;;;;6.97;3.47;;;12.60;99.90;;;;;;5134157;28;20176;-50
2023/05/28 00:42:51;;;;;;;7.90;4.30;;;12.50;99.90;;;;;;5134204;28;20173;-51
2023/05/28 00:45:17;;;;;;;6.43;4.20;;;12.40;99.90;;;;;;5134051;28;20659;-49
2023/05/28 00:47:43;;;;;;;10.13;4.27;;;12.30;99.90;;;;;;5134291;28;20546;-51
2023/05/28 00:50:10;;;;;;;7.27;4.03;;;12.30;99.90;;;;;;5134036;28;20213;-50
2023/05/28 00:52:36;;;;;;;9.23;4.47;;;12.20;99.90;;;;;;5134165;28;20181;-50
2023/05/28 00:55:04;;;;;;;11.33;4.60;;;12.10;99.90;;;;;;5134175;28;20204;-50
2023/05/28 00:57:30;;;;;;;7.83;4.03;;;12.00;99.90;;;;;;5134405;28;20174;-50
2023/05/28 00:59:57;;;;;;;6.53;3.70;;;11.90;99.90;;;;;;5134326;28;20252;-50
2023/05/28 01:02:22;;;;;;;6.93;3.93;;;11.90;99.90;;;;;;5134375;28;20182;-49
2023/05/28 01:04:48;;;;;;;9.20;4.03;;;11.80;99.90;;;;;;5133935;28;20277;-48
2023/05/28 01:07:14;;;;;;;10.27;4.43;;;11.70;99.90;;;;;;5134143;28;20180;-50
2023/05/28 01:09:40;;;;;;;7.60;3.90;;;11.70;99.90;;;;;;5134112;28;20223;-49
2023/05/28 01:12:07;;;;;;;8.20;4.13;;;11.60;99.90;;;;;;5134060;28;20265;-49
2023/05/28 01:14:37;;;;;;;8.53;3.83;;;11.60;99.90;;;;;;5133958;28;20208;-47
2023/05/28 01:17:03;;;;;;;7.70;4.47;;;11.50;99.90;;;;;;5134003;28;20204;-49
2023/05/28 01:19:31;;;;;;;9.87;4.40;;;11.40;99.90;;;;;;5134469;27;20630;-50
2023/05/28 01:22:03;;;;;;;8.83;5.07;;;11.40;99.90;;;;;;5137809;27;20239;-50
2023/05/28 01:24:29;;;;;;;6.17;3.90;;;11.30;99.90;;;;;;5137432;27;20219;-50
2023/05/28 01:26:56;;;;;;;10.67;5.33;;;11.30;99.90;;;;;;5137389;27;20197;-50
2023/05/28 01:29:22;;;;;;;13.53;4.43;;;11.20;99.90;;;;;;5137787;27;20174;-50
2023/05/28 01:31:47;;;;;;;6.87;4.73;;;11.10;99.90;;;;;;5137180;27;20640;-48
2023/05/28 01:34:13;;;;;;;7.17;4.07;;;11.10;99.90;;;;;;5137263;27;20262;-48
2023/05/28 01:36:58;;;;;;;8.47;4.70;;;11.10;99.90;;;;;;5137299;27;20543;-51
2023/05/28 01:39:26;;;;;;;9.50;4.53;;;11.00;99.90;;;;;;5137569;27;20170;-49
2023/05/28 01:41:53;;;;;;;13.43;5.43;;;11.00;99.90;;;;;;5137121;27;20169;-50
2023/05/28 01:44:19;;;;;;;8.00;4.70;;;10.90;99.90;;;;;;5137100;27;20749;-49
2023/05/28 01:46:47;;;;;;;8.20;4.33;;;10.90;99.90;;;;;;5137001;27;20219;-50
2023/05/28 01:49:13;;;;;;;10.40;4.30;;;10.80;99.90;;;;;;5136923;27;20181;-49
2023/05/28 01:51:39;;;;;;;9.83;4.87;;;10.80;99.90;;;;;;5137170;27;20166;-49
2023/05/28 01:54:04;;;;;;;10.83;5.00;;;10.80;99.90;;;;;;5136723;27;20206;-49
2023/05/28 01:56:30;;;;;;;9.63;4.57;;;10.80;99.90;;;;;;5137086;27;20201;-49
2023/05/28 01:58:56;;;;;;;12.43;5.90;;;10.70;99.90;;;;;;5137328;27;20196;-50
2023/05/28 02:01:29;;;;;;;14.00;5.97;;;10.70;99.90;;;;;;5136928;27;20699;-48
2023/05/28 02:03:58;;;;;;;12.40;4.90;;;10.70;99.90;;;;;;5136646;27;20649;-49
2023/05/28 02:06:26;;;;;;;9.30;5.43;;;10.60;99.90;;;;;;5136678;27;20205;-49
2023/05/28 02:08:52;;;;;;;13.23;5.50;;;10.60;99.90;;;;;;5136476;27;20645;-49
2023/05/28 02:11:18;;;;;;;13.00;5.83;;;10.60;99.90;;;;;;5136498;27;20173;-48
2023/05/28 02:13:44;;;;;;;17.03;5.53;;;10.60;99.90;;;;;;5117960;27;20284;-50
2023/05/28 02:16:10;;;;;;;14.40;4.97;;;10.60;99.90;;;;;;5136192;27;20205;-50
2023/05/28 02:18:37;;;;;;;9.67;4.77;;;10.50;99.90;;;;;;5136382;27;20193;-49
2023/05/28 02:21:03;;;;;;;10.10;4.97;;;10.50;99.90;;;;;;5136662;27;20169;-49
2023/05/28 02:23:29;;;;;;;7.47;4.67;;;10.50;99.90;;;;;;5136349;27;20201;-48
2023/05/28 02:25:54;;;;;;;8.63;5.00;;;10.40;99.90;;;;;;5136908;27;20188;-48
2023/05/28 02:28:20;;;;;;;8.60;4.87;;;10.40;99.90;;;;;;5136451;27;20645;-50
2023/05/28 02:30:46;;;;;;;9.93;5.03;;;10.40;99.90;;;;;;5135953;27;20645;-48
2023/05/28 02:33:11;;;;;;;12.77;5.60;;;10.30;99.90;;;;;;5135567;27;20213;-49
2023/05/28 02:35:37;;;;;;;14.40;5.47;;;10.30;99.90;;;;;;5136159;27;20677;-50
2023/05/28 02:38:02;;;;;;;12.27;5.97;;;10.20;99.90;;;;;;5136019;27;20177;-48
2023/05/28 02:40:28;;;;;;;7.83;4.67;;;10.20;99.90;;;;;;5135975;27;20637;-49
2023/05/28 02:42:53;;;;;;;11.67;4.77;;;10.10;99.90;;;;;;5136133;27;20598;-48
2023/05/28 02:45:19;;;;;;;9.67;4.80;;;10.20;99.90;;;;;;5135868;27;20177;-48
2023/05/28 02:47:45;;;;;;;8.23;4.17;;;10.10;99.90;;;;;;5136104;27;20205;-51
2023/05/28 02:50:10;;;;;;;7.07;4.27;;;10.10;99.90;;;;;;5135966;27;20193;-49
2023/05/28 02:52:36;;;;;;;9.47;4.43;;;10.00;99.90;;;;;;5136357;27;20238;-50
2023/05/28 02:55:02;;;;;;;8.90;4.60;;;10.00;99.90;;;;;;5135561;27;20313;-49
2023/05/28 02:57:27;;;;;;;13.37;4.73;;;9.90;99.90;;;;;;5135656;27;20256;-48
2023/05/28 02:59:53;;;;;;;10.40;4.90;;;9.90;99.90;;;;;;5117061;27;20273;-50
2023/05/28 03:02:19;;;;;;;11.93;5.83;;;9.80;99.90;;;;;;5135763;27;20177;-50
2023/05/28 03:04:44;;;;;;;9.47;4.50;;;9.80;99.90;;;;;;5135674;27;20201;-50
2023/05/28 03:07:10;;;;;;;9.53;4.97;;;9.80;99.90;;;;;;5135854;27;20192;-48
2023/05/28 03:09:37;;;;;;;8.90;4.63;;;9.70;99.90;;;;;;5135650;27;20226;-48
2023/05/28 03:12:02;;;;;;;9.80;4.67;;;9.70;99.90;;;;;;5135512;27;20314;-49
2023/05/28 03:14:28;;;;;;;13.00;4.90;;;9.70;99.90;;;;;;5135236;27;20729;-49
2023/05/28 03:16:53;;;;;;;7.67;4.63;;;9.70;99.90;;;;;;5135112;27;20205;-49
2023/05/28 03:19:20;;;;;;;6.37;4.20;;;9.60;99.90;;;;;;5135579;27;20177;-49
2023/05/28 03:21:45;;;;;;;7.07;4.43;;;9.60;99.90;;;;;;5135388;27;20299;-50
2023/05/28 03:24:11;;;;;;;10.43;4.47;;;9.60;99.90;;;;;;5135107;27;20666;-50
2023/05/28 03:26:37;;;;;;;6.57;4.40;;;9.50;99.90;;;;;;5135314;27;20602;-49
2023/05/28 03:29:02;;;;;;;6.33;4.27;;;9.50;99.90;;;;;;5135697;27;20226;-50
2023/05/28 03:31:30;;;;;;;8.27;4.67;;;9.50;99.90;;;;;;5135734;27;20185;-49
2023/05/28 03:33:56;;;;;;;9.73;4.50;;;9.40;99.90;;;;;;5136738;27;20303;-50
2023/05/28 03:36:24;;;;;;;7.73;4.10;;;9.40;99.90;;;;;;5134835;27;20288;-49
2023/05/28 03:38:50;;;;;;;8.33;4.00;;;9.30;99.90;;;;;;5135086;27;20576;-49
2023/05/28 03:41:16;;;;;;;7.20;4.60;;;9.20;99.90;;;;;;5134790;27;20191;-48
2023/05/28 03:43:41;;;;;;;8.70;4.30;;;9.30;99.90;;;;;;5134513;27;20201;-47
2023/05/28 03:46:07;;;;;;;8.63;4.23;;;9.20;99.90;;;;;;5134723;27;20264;-49
2023/05/28 03:48:33;;;;;;;7.30;4.70;;;9.20;99.90;;;;;;5135252;27;20575;-48
2023/05/28 03:51:00;;;;;;;9.37;5.00;;;9.20;99.90;;;;;;5134692;27;20229;-48
2023/05/28 03:53:26;;;;;;;9.13;4.60;;;9.20;99.90;;;;;;5135185;27;20243;-48
2023/05/28 03:55:51;;;;;;;8.20;5.17;;;9.20;99.90;;;;;;5134830;27;20718;-50
2023/05/28 03:58:17;;;;;;;10.57;6.13;;;9.20;99.90;;;;;;5134936;27;20176;-48
2023/05/28 04:00:43;;;;;;;9.23;5.70;;;9.20;99.90;;;;;;5134845;27;20280;-49
2023/05/28 04:03:08;;;;;;;18.17;7.03;;;9.20;99.90;;;;;;5134542;27;20284;-49
2023/05/28 04:05:34;;;;;;;11.93;5.63;;;9.30;99.90;;;;;;5134815;27;20184;-49
2023/05/28 04:08:01;;;;;;;14.33;6.10;;;9.40;99.90;;;;;;5135134;27;20230;-50
2023/05/28 04:10:26;;;;;;;13.00;6.77;;;9.40;99.90;;;;;;5134890;27;20547;-49
2023/05/28 04:12:54;;;;;;;11.47;6.43;;;9.50;99.90;;;;;;5134356;27;20212;-48
2023/05/28 04:15:20;;;;;;;10.13;6.47;;;9.60;99.90;;;;;;5134265;28;20679;-49
2023/05/28 04:17:46;;;;;;;10.13;6.93;;;9.60;99.90;;;;;;5134783;28;20177;-49
2023/05/28 04:20:12;;;;;;;11.97;6.10;;;9.70;99.90;;;;;;5134569;28;20673;-49
2023/05/28 04:22:37;;;;;;;11.50;6.43;;;9.70;99.90;;;;;;5134763;28;20188;-48
2023/05/28 04:25:03;;;;;;;13.43;6.47;;;9.80;99.90;;;;;;5134643;28;20656;-49
2023/05/28 04:27:30;;;;;;;16.07;6.63;;;9.80;99.90;;;;;;5134932;28;20179;-50
2023/05/28 04:29:56;;;;;;;12.73;6.33;;;9.80;99.90;;;;;;5134654;28;20641;-48
2023/05/28 04:32:23;;;;;;;9.70;6.77;;;9.90;99.90;;;;;;5134119;28;20706;-49
2023/05/28 04:34:53;;;;;;;11.03;6.20;;;10.00;99.90;;;;;;5134110;28;20233;-48
2023/05/28 04:37:19;;;;;;;10.53;6.30;;;10.00;99.90;;;;;;5134269;28;20205;-49
2023/05/28 04:39:44;;;;;;;13.50;5.33;;;10.00;99.90;;;;;;5115789;28;20185;-48
2023/05/28 04:42:16;;;;;;;11.17;5.77;;;10.00;99.90;;;;;;5134308;28;20583;-48
2023/05/28 04:44:43;;;;;;;15.40;5.90;;;10.00;99.90;;;;;;5134932;28;20204;-50
2023/05/28 04:47:09;;;;;;;12.83;6.23;;;10.00;99.90;;;;;;5115822;28;20177;-50
2023/05/28 04:49:34;;;;;;;14.10;6.37;;;10.00;99.90;;;;;;5134505;28;20191;-49
2023/05/28 04:52:00;;;;;;;11.17;6.50;;;10.10;99.90;;;;;;5134175;28;20208;-50
2023/05/28 04:54:26;;;;;;;9.80;5.87;;;10.10;99.90;;;;;;5134533;27;20280;-49
2023/05/28 04:56:52;;;;;;;14.40;6.93;;;10.10;99.90;;;;;;5138077;27;20692;-49
2023/05/28 04:59:18;;;;;;;14.57;7.07;;;10.20;99.90;;;;;;5138191;27;20295;-49
2023/05/28 05:01:43;;;;;;;12.30;7.00;;;10.30;99.90;;;;;;5138364;27;20192;-49
2023/05/28 05:04:09;;;;;;;13.80;7.20;;;10.40;99.90;;;;;;5137944;27;20246;-48
2023/05/28 05:06:34;;;;;;;11.10;7.20;;;10.50;99.90;;;;;;5138014;27;20185;-51
2023/05/28 05:09:00;;;;;;;24.03;7.20;;;10.60;99.90;;;;;;5137924;27;20183;-48
2023/05/28 05:11:26;;;;;;;15.30;6.50;;;10.70;99.90;;;;;;5137923;27;20259;-50
2023/05/28 05:13:52;;;;;;;19.27;7.50;;;10.90;99.90;;;;;;5138074;27;20229;-48
2023/05/28 05:16:18;;;;;;;19.77;7.33;;;11.00;99.90;;;;;;5137842;27;20215;-50
2023/05/28 05:18:44;;;;;;;19.60;7.63;;;11.20;99.90;;;;;;5137946;27;20188;-49
2023/05/28 05:21:12;;;;;;;19.97;7.93;;;11.30;99.90;;;;;;5138015;27;20541;-50
2023/05/28 05:23:39;;;;;;;20.27;7.33;;;11.30;99.90;;;;;;5137845;27;20222;-48
2023/05/28 05:26:05;;;;;;;22.10;8.27;;;11.50;99.90;;;;;;5137777;27;20209;-47
2023/05/28 05:28:31;;;;;;;20.27;7.47;;;11.50;99.90;;;;;;5137647;27;20237;-51
2023/05/28 05:30:56;;;;;;;20.63;8.10;;;11.60;99.90;;;;;;5137471;27;20196;-49
2023/05/28 05:33:22;;;;;;;24.60;8.77;;;11.70;99.90;;;;;;5137237;27;20255;-48
2023/05/28 05:35:47;;;;;;;26.80;8.53;;;11.80;99.90;;;;;;5137327;27;20211;-50
2023/05/28 05:38:13;;;;;;;15.87;8.00;;;11.80;99.90;;;;;;5137586;27;20260;-50
2023/05/28 05:40:39;;;;;;;18.40;8.10;;;11.90;99.90;;;;;;5137295;27;20181;-48
2023/05/28 05:43:04;;;;;;;16.20;7.60;;;11.90;99.90;;;;;;5137152;27;20292;-49
2023/05/28 05:45:30;;;;;;;18.87;7.97;;;12.00;99.90;;;;;;5137528;27;20188;-50
2023/05/28 05:47:55;;;;;;;23.60;7.67;;;12.10;99.90;;;;;;5137470;27;20656;-51
2023/05/28 05:50:21;;;;;;;18.97;8.27;;;12.20;99.90;;;;;;5137052;27;20185;-49
2023/05/28 05:52:47;;;;;;;15.53;8.33;;;12.30;99.90;;;;;;5118643;27;20269;-48
2023/05/28 05:55:12;;;;;;;19.10;7.53;;;12.40;99.90;;;;;;5137164;27;20236;-49
2023/05/28 05:57:38;;;;;;;16.43;7.23;;;12.50;99.90;;;;;;5137109;27;20222;-49
2023/05/28 06:00:06;;;;;;;17.47;7.47;;;12.70;99.90;;;;;;5137277;27;20170;-49
2023/05/28 06:02:32;;;;;;;18.20;7.43;;;12.70;99.90;;;;;;5137307;27;20574;-49
2023/05/28 06:04:57;;;;;;;16.20;7.60;;;12.80;99.90;;;;;;5137373;27;20252;-50
2023/05/28 06:07:23;;;;;;;13.37;7.60;;;13.00;99.90;;;;;;5135810;27;20178;-49
2023/05/28 06:09:49;;;;;;;21.07;8.07;;;13.10;99.90;;;;;;5136995;27;20625;-51
2023/05/28 06:12:15;;;;;;;16.47;7.33;;;13.20;99.90;;;;;;5136602;27;20182;-49
2023/05/28 06:14:41;;;;;;;16.00;7.85;;;13.40;99.90;;;;;;5136698;27;20205;-49
2023/05/28 06:17:06;;;;;;;26.30;7.17;;;13.40;99.90;;;;;;5136670;27;20158;-51
2023/05/28 06:19:33;;;;;;;16.23;7.17;;;13.60;99.90;;;;;;5136918;27;20660;-51
2023/05/28 06:21:59;;;;;;;14.27;7.40;;;13.70;99.90;;;;;;5136561;27;20252;-50
2023/05/28 06:24:25;;;;;;;14.17;6.63;;;13.80;99.90;;;;;;5118158;27;20217;-49
2023/05/28 06:26:51;;;;;;;19.97;7.23;;;13.90;99.90;;;;;;5136737;27;20547;-50
2023/05/28 06:29:17;;;;;;;13.20;7.07;;;14.00;99.90;;;;;;5118050;27;20171;-51
2023/05/28 06:31:42;;;;;;;15.17;7.47;;;14.20;99.90;;;;;;5136898;27;20193;-51
2023/05/28 06:34:08;;;;;;;12.70;7.30;;;14.40;99.90;;;;;;5136219;27;20228;-49
2023/05/28 06:36:35;;;;;;;16.17;7.53;;;14.40;99.90;;;;;;5136974;27;20225;-50
2023/05/28 06:39:01;;;;;;;18.20;7.30;;;14.50;99.90;;;;;;5136476;27;20184;-50
2023/05/28 06:41:27;;;;;;;13.83;6.83;;;14.60;99.90;;;;;;5136032;27;20179;-49
2023/05/28 06:43:52;;;;;;;11.73;6.60;;;14.80;99.90;;;;;;5136006;27;20660;-50
2023/05/28 06:46:21;;;;;;;14.07;7.10;;;15.00;99.90;;;;;;5136172;27;20529;-51
2023/05/28 06:48:46;;;;;;;16.17;6.87;;;15.20;99.90;;;;;;5136290;27;20178;-50
2023/05/28 06:51:12;;;;;;;18.07;7.17;;;15.50;99.90;;;;;;5136468;27;20188;-51
2023/05/28 06:53:38;;;;;;;15.53;6.67;;;15.70;99.90;;;;;;5135704;27;20570;-51
2023/05/28 06:56:05;;;;;;;19.70;6.97;;;16.00;99.90;;;;;;5135873;27;20209;-49
2023/05/28 06:58:31;;;;;;;15.50;5.80;;;16.30;99.90;;;;;;5135956;27;20169;-52
2023/05/28 07:00:58;;;;;;;12.90;5.73;;;16.40;99.90;;;;;;5135942;27;20178;-52
2023/05/28 07:03:23;;;;;;;10.23;5.00;;;16.50;99.90;;;;;;5135574;27;20200;-51
2023/05/28 07:05:49;;;;;;;11.93;5.10;;;16.50;99.90;;;;;;5135803;27;20158;-50
2023/05/28 07:08:15;;;;;;;11.60;5.37;;;16.50;99.90;;;;;;5135842;27;20189;-51
2023/05/28 07:10:40;;;;;;;16.17;6.33;;;16.60;99.90;;;;;;5135816;27;20166;-52
2023/05/28 07:13:06;;;;;;;16.70;5.13;;;16.80;99.90;;;;;;5135254;27;20229;-51
2023/05/28 07:15:31;;;;;;;8.80;5.13;;;17.10;99.90;;;;;;5135906;27;20201;-51
2023/05/28 07:17:57;;;;;;;17.60;4.97;;;17.30;99.90;;;;;;5135145;27;20170;-51
2023/05/28 07:20:23;;;;;;;12.73;4.93;;;17.60;99.90;;;;;;5135587;27;20177;-50
2023/05/28 07:22:48;;;;;;;9.70;5.10;;;17.80;99.90;;;;;;5116715;27;20177;-51
2023/05/28 07:25:14;;;;;;;14.40;4.80;;;18.20;99.90;;;;;;5135142;27;20636;-51
2023/05/28 07:27:40;;;;;;;9.53;4.10;;;18.60;99.90;;;;;;5135420;27;20169;-50
2023/05/28 07:30:06;;;;;;;12.50;4.90;;;19.00;99.90;;;;;;5136046;27;20669;-51
2023/05/28 07:32:31;;;;;;;11.23;4.97;;;19.40;99.90;;;;;;5135109;27;20227;-51
2023/05/28 07:34:57;;;;;;;10.47;4.83;;;19.50;99.90;;;;;;5135456;27;20220;-52
2023/05/28 07:37:23;;;;;;;10.00;4.70;;;19.50;99.90;;;;;;5134988;27;20166;-50
2023/05/28 07:39:48;;;;;;;9.97;5.03;;;19.40;99.90;;;;;;5134911;27;20177;-51
2023/05/28 07:42:14;;;;;;;11.67;4.53;;;19.50;99.90;;;;;;5135129;27;20181;-51
2023/05/28 07:44:40;;;;;;;16.60;4.13;;;19.70;99.90;;;;;;5134878;27;20205;-50
2023/05/28 07:47:05;;;;;;;10.77;4.73;;;19.90;99.90;;;;;;5134956;27;20173;-51
2023/05/28 07:49:31;;;;;;;12.23;4.73;;;20.00;99.90;;;;;;5134930;27;20242;-51
2023/05/28 07:51:57;;;;;;;11.00;4.20;;;20.20;99.90;;;;;;5134948;27;20188;-52
2023/05/28 07:54:22;;;;;;;10.17;4.30;;;20.40;99.90;;;;;;5134860;27;20324;-51
2023/05/28 07:56:48;;;;;;;9.90;4.47;;;20.60;99.90;;;;;;5134623;27;20287;-52
2023/05/28 07:59:14;;;;;;;8.83;4.67;;;20.70;99.90;;;;;;5134618;27;20253;-51
2023/05/28 08:01:40;;;;;;;9.77;4.80;;;20.80;99.90;;;;;;5134591;27;20173;-52
2023/05/28 08:04:06;;;;;;;11.30;3.97;;;21.00;99.90;;;;;;5134511;27;20200;-51
2023/05/28 08:06:32;;;;;;;12.70;4.30;;;21.10;99.90;;;;;;5135095;27;20177;-52
2023/05/28 08:08:58;;;;;;;9.07;4.43;;;21.10;99.90;;;;;;5134702;27;20173;-51
2023/05/28 08:11:25;;;;;;;10.87;4.43;;;20.90;99.90;;;;;;5134444;27;20641;-51
2023/05/28 08:13:51;;;;;;;7.70;3.87;;;20.70;99.90;;;;;;5115899;27;20197;-50
2023/05/28 08:16:17;;;;;;;11.37;3.93;;;20.70;99.90;;;;;;5134336;27;20540;-52
2023/05/28 08:18:42;;;;;;;6.53;4.30;;;20.70;99.90;;;;;;5134645;28;20154;-51
2023/05/28 08:21:08;;;;;;;13.73;4.13;;;20.60;99.90;;;;;;5134259;28;20184;-52
2023/05/28 08:23:34;;;;;;;14.33;5.23;;;20.50;99.90;;;;;;5134216;28;20270;-52
2023/05/28 08:26:03;;;;;;;8.80;3.97;;;20.50;99.90;;;;;;5134304;28;20646;-51
2023/05/28 08:28:29;;;;;;;13.00;4.00;;;20.60;99.90;;;;;;5134236;27;20206;-51
2023/05/28 08:30:56;;;;;;;15.80;4.03;;;20.60;99.90;;;;;;5137286;27;20272;-52
2023/05/28 08:33:22;;;;;;;10.80;3.97;;;20.60;99.90;;;;;;5138499;27;20738;-52
2023/05/28 08:35:48;;;;;;;11.23;4.40;;;20.80;99.90;;;;;;5138767;27;20609;-50
2023/05/28 08:38:14;;;;;;;7.90;3.70;;;21.10;99.90;;;;;;5138505;27;20204;-51
2023/05/28 08:40:42;;;;;;;8.83;3.93;;;21.10;99.90;;;;;;5138533;27;20165;-52
2023/05/28 08:43:08;;;;;;;13.13;4.13;;;21.20;99.90;;;;;;5138620;27;20194;-53
2023/05/28 08:45:36;;;;;;;5.57;3.47;;;21.40;99.90;;;;;;5138849;27;20181;-52
2023/05/28 08:48:05;;;;;;;7.93;3.97;;;21.40;99.90;;;;;;5138538;27;20169;-51
2023/05/28 08:50:32;;;;;;;9.43;3.80;;;21.40;99.90;;;;;;5138472;27;20230;-52
2023/05/28 08:53:00;;;;;;;8.87;3.83;;;21.60;99.90;;;;;;5138495;27;20189;-52
2023/05/28 08:55:26;;;;;;;7.57;3.70;;;21.60;99.90;;;;;;5138324;27;20218;-52
2023/05/28 08:57:52;;;;;;;9.57;3.57;;;21.70;99.90;;;;;;5138490;27;20158;-52
2023/05/28 09:00:18;;;;;;;11.33;3.60;;;21.90;99.90;;;;;;5138330;27;20173;-52
2023/05/28 09:02:44;;;;;;;8.47;3.30;;;22.10;99.90;;;;;;5137938;27;20169;-53
2023/05/28 09:05:10;;;;;;;9.70;3.97;;;22.10;99.90;;;;;;5138126;27;20646;-52
2023/05/28 09:07:36;;;;;;;9.10;3.57;;;22.20;99.90;;;;;;5138186;27;20205;-51
2023/05/28 09:10:03;;;;;;;6.27;3.40;;;22.30;99.90;;;;;;5137787;27;20514;-52
2023/05/28 09:12:29;;;;;;;7.80;3.43;;;22.20;99.90;;;;;;5138145;27;20181;-52
2023/05/28 09:14:55;;;;;;;6.20;3.50;;;22.10;99.90;;;;;;5137793;27;20189;-50
2023/05/28 09:17:33;;;;;;;7.40;3.37;;;22.10;99.90;;;;;;5137919;27;20205;-52
2023/05/28 09:20:04;;;;;;;8.63;3.77;;;22.20;99.90;;;;;;5137899;27;20218;-52
2023/05/28 09:22:31;;;;;;;6.23;3.37;;;22.30;99.90;;;;;;5137938;27;20162;-53
2023/05/28 09:24:59;;;;;;;13.03;4.00;;;22.30;99.90;;;;;;5137430;27;20197;-52
2023/05/28 09:27:25;;;;;;;9.70;3.90;;;22.20;99.90;;;;;;5137771;27;20185;-52
2023/05/28 09:29:52;;;;;;;7.70;3.53;;;22.20;99.90;;;;;;5137594;27;20657;-54
2023/05/28 09:32:20;;;;;;;6.63;3.40;;;22.30;99.90;;;;;;5137348;27;20256;-53
2023/05/28 09:34:48;;;;;;;6.93;3.23;;;22.50;99.90;;;;;;5137618;27;20198;-51
2023/05/28 09:37:16;;;;;;;5.33;3.00;;;22.50;99.90;;;;;;5137225;27;20216;-52
2023/05/28 09:39:42;;;;;;;7.23;3.10;;;22.50;99.90;;;;;;5137096;27;20174;-54
2023/05/28 09:42:11;;;;;;;11.57;4.03;;;22.60;99.90;;;;;;5137084;27;20169;-53
2023/05/28 09:44:39;;;;;;;9.33;3.90;;;22.90;99.90;;;;;;5137001;27;20745;-52
2023/05/28 09:47:18;;;;;;;8.00;4.27;;;23.10;99.90;;;;;;5137248;27;20185;-53
2023/05/28 09:49:47;;;;;;;10.60;4.83;;;23.30;99.90;;;;;;5137304;27;20182;-51
2023/05/28 09:52:20;;;;;;;9.17;4.23;;;23.30;99.90;;;;;;5136943;27;20173;-53
2023/05/28 09:54:52;;;;;;;6.03;3.77;;;23.30;99.90;;;;;;5136882;27;20220;-53
2023/05/28 09:57:25;;;;;;;11.03;4.13;;;23.20;99.90;;;;;;5136860;27;20205;-53
2023/05/28 09:59:55;;;;;;;8.83;3.77;;;23.10;99.90;;;;;;5136814;27;20166;-51
2023/05/28 10:03:03;;;;;;;10.57;3.90;;;23.20;99.90;;;;;;5137342;27;20206;-52
2023/05/28 10:05:33;;;;;;;6.43;3.20;;;23.30;99.90;;;;;;5128487;27;20181;-52
2023/05/28 10:08:00;;;;;;;9.13;3.70;;;23.30;99.90;;;;;;5136865;27;20233;-52
2023/05/28 10:10:30;;;;;;;8.10;3.77;;;23.20;99.90;;;;;;5136590;27;20661;-53
2023/05/28 10:12:57;;;;;;;5.63;3.30;;;23.10;99.90;;;;;;5136731;27;20194;-53
2023/05/28 10:15:23;;;;;;;7.50;3.20;;;23.10;99.90;;;;;;5136725;27;20204;-52
2023/05/28 10:17:50;;;;;;;8.00;3.93;;;23.10;99.90;;;;;;5136672;27;20170;-53
2023/05/28 10:20:18;;;;;;;6.13;3.53;;;23.10;99.90;;;;;;5136316;27;20178;-52
2023/05/28 10:22:44;;;;;;;5.07;3.10;;;23.10;99.90;;;;;;5136536;27;20227;-53
2023/05/28 10:25:10;;;;;;;4.80;3.10;;;23.20;99.90;;;;;;5136267;27;20180;-53
2023/05/28 10:27:42;;;;;;;6.03;3.00;;;23.20;99.90;;;;;;5136566;27;20177;-53
2023/05/28 10:30:09;;;;;;;4.00;2.97;;;23.30;99.90;;;;;;5136580;27;20218;-52
2023/05/28 10:32:40;;;;;;;7.67;3.10;;;23.30;99.90;;;;;;5117997;27;20193;-52
2023/05/28 10:35:09;;;;;;;9.20;3.40;;;23.40;99.90;;;;;;5136241;27;20222;-52
2023/05/28 10:37:35;;;;;;;7.73;3.73;;;23.50;99.90;;;;;;5136320;27;20561;-53
2023/05/28 10:40:01;;;;;;;7.27;3.07;;;23.50;99.90;;;;;;5136013;27;20665;-53
2023/05/28 10:42:26;;;;;;;4.43;2.63;;;23.50;99.80;;;;;;5136196;27;20176;-54
2023/05/28 10:45:09;;;;;;;8.07;3.25;;;23.50;99.10;;;;;;5135809;27;20732;-52
2023/05/28 10:47:40;;;;;;;7.45;3.40;;;23.50;99.90;;;;;;5136133;27;20547;-53
2023/05/28 10:50:08;;;;;;;6.60;3.17;;;23.50;99.90;;;;;;5136050;27;20222;-52
2023/05/28 10:52:34;;;;;;;4.82;2.90;;;23.50;99.90;;;;;;5135114;27;20181;-52
2023/05/28 10:55:05;;;;;;;10.05;3.35;;;23.50;99.60;;;;;;5135849;27;20173;-52
2023/05/28 10:57:45;;;;;;;4.93;2.80;;;23.60;99.50;;;;;;5135614;27;20641;-53
2023/05/28 11:00:15;;;;;;;5.57;3.00;;;23.80;99.10;;;;;;5135627;27;20174;-53
2023/05/28 11:02:46;;;;;;;4.32;2.65;;;23.80;97.90;;;;;;5135907;27;20183;-53
2023/05/28 11:05:12;;;;;;;5.85;2.90;;;23.90;99.30;;;;;;5135848;27;20185;-53
2023/05/28 11:07:40;;;;;;;4.70;3.10;;;24.00;99.30;;;;;;5135658;27;20210;-53
2023/05/28 11:10:08;;;;;;;8.90;3.50;;;24.00;99.90;;;;;;5135927;27;20184;-53
2023/05/28 11:12:39;;;;;;;5.57;2.90;;;24.20;99.90;;;;;;5135513;27;20191;-52
2023/05/28 11:15:06;;;;;;;6.03;3.38;;;24.30;99.90;;;;;;5135749;27;20161;-51
2023/05/28 11:17:40;;;;;;;6.70;3.08;;;24.40;99.80;;;;;;5135373;27;20177;-53
2023/05/28 11:20:27;;;;;;;5.13;3.03;;;24.50;99.00;;;;;;5135590;27;20622;-52
2023/05/28 11:22:54;;;;;;;8.27;3.13;;;24.40;98.60;;;;;;5135424;27;20197;-53
2023/05/28 11:25:25;;;;;;;6.65;3.33;;;24.40;98.40;;;;;;5135192;27;20173;-53
2023/05/28 11:27:52;;;;;;;9.65;3.58;;;24.40;99.90;;;;;;5135348;27;20168;-53
2023/05/28 11:30:19;;;;;;;6.78;3.25;;;24.60;98.50;;;;;;5135018;27;20258;-53
2023/05/28 11:32:46;;;;;;;4.72;2.95;;;24.80;99.90;;;;;;5134977;27;20197;-53
2023/05/28 11:35:13;;;;;;;7.57;3.53;;;25.10;99.90;;;;;;5134820;27;20581;-53
2023/05/28 11:37:41;;;;;;;8.02;3.03;;;25.10;99.90;;;;;;5135031;27;20173;-53
2023/05/28 11:40:10;;;;;;;7.45;3.35;;;25.10;99.90;;;;;;5134969;27;20173;-53
2023/05/28 11:42:40;;;;;;;5.20;3.30;;;25.10;98.50;;;;;;5134737;27;20173;-52
2023/05/28 11:45:07;;;;;;;6.15;3.65;;;25.00;98.70;;;;;;5135100;27;20248;-53
2023/05/28 11:47:34;;;;;;;6.63;3.67;;;24.80;98.10;;;;;;5134739;27;20181;-52
2023/05/28 11:50:06;;;;;;;6.30;3.28;;;24.80;99.10;;;;;;5134625;27;20169;-53
2023/05/28 11:52:32;;;;;;;6.45;3.08;;;24.80;99.90;;;;;;5135035;27;20165;-53
2023/05/28 11:55:01;;;;;;;8.18;3.55;;;24.80;99.90;;;;;;5134513;27;20537;-53
2023/05/28 11:57:28;;;;;;;6.63;3.30;;;24.80;99.10;;;;;;5134612;27;20173;-53
2023/05/28 12:00:11;;;;;;;7.50;3.47;;;24.90;99.20;;;;;;5134801;27;20246;-52
2023/05/28 12:02:51;;;;;;;5.32;3.28;;;24.90;97.70;;;;;;5134722;27;20157;-53
2023/05/28 12:05:17;;;;;;;6.15;3.60;;;24.80;97.70;;;;;;5134717;27;20268;-53
2023/05/28 12:07:45;;;;;;;7.07;3.75;;;24.80;98.80;;;;;;5134759;27;20227;-52
2023/05/28 12:10:12;;;;;;;8.80;3.67;;;24.90;98.40;;;;;;5134726;27;20212;-52
2023/05/28 12:12:43;;;;;;;6.03;3.92;;;25.00;98.40;;;;;;5134693;27;20195;-52
2023/05/28 12:15:09;;;;;;;5.78;3.42;;;25.00;97.00;;;;;;5134648;27;20168;-51
2023/05/28 12:17:40;;;;;;;6.18;3.55;;;25.00;96.50;;;;;;5134646;27;20184;-53
2023/05/28 12:20:14;;;;;;;7.82;3.60;;;25.00;96.70;;;;;;5134266;27;20209;-53
2023/05/28 12:22:41;;;;;;;7.20;3.30;;;25.10;98.50;;;;;;5134276;28;20256;-53
2023/05/28 12:25:07;;;;;;;8.73;3.38;;;25.20;98.50;;;;;;5134358;28;20209;-53
2023/05/28 12:27:33;;;;;;;8.15;4.28;;;25.40;97.50;;;;;;5134496;28;20182;-53
2023/05/28 12:29:59;;;;;;;6.63;3.72;;;25.40;96.90;;;;;;5134424;28;20256;-52
2023/05/28 12:32:25;;;;;;;6.55;3.83;;;25.60;97.90;;;;;;5134098;28;20189;-54
2023/05/28 12:34:56;;;;;;;6.38;3.47;;;25.70;97.80;;;;;;5134366;28;20194;-54
2023/05/28 12:37:24;;;;;;;9.63;3.70;;;25.70;95.70;;;;;;5134492;28;20178;-53
2023/05/28 12:39:51;;;;;;;7.97;3.67;;;25.60;96.60;;;;;;5134458;28;20179;-53
2023/05/28 12:42:17;;;;;;;5.82;3.72;;;25.60;95.20;;;;;;5134127;28;20165;-54